Time;durP1;ratioP1;P1;durP2;ratioP2;P2;SDS_P1;SDS_P2;PMS_P1;PMS_P2;Temp;Humidity;BMP_temperature;BMP_pressure;BME280_temperature;BME280_humidity;BME280_pressure;Samples;Min_cycle;Max_cycle;Signal;HPM_P1;HPM_P2
2022/10/26 00:02:09;;;;;;;61.58;58.03;;;;;;;16.17;75.25;101015.56;5015486;28;102430;-53
2022/10/26 00:04:36;;;;;;;65.80;61.88;;;;;;;16.17;75.81;101012.81;5026983;28;102108;-53
2022/10/26 00:07:02;;;;;;;60.67;57.00;;;;;;;16.17;75.26;101012.81;5035201;27;103753;-54
2022/10/26 00:09:30;;;;;;;67.45;63.60;;;;;;;16.17;75.37;101007.34;5034375;27;102171;-53
2022/10/26 00:11:57;;;;;;;62.28;58.63;;;;;;;16.16;75.60;100998.28;5016221;27;102293;-53
2022/10/26 00:14:24;;;;;;;65.85;62.05;;;;;;;16.17;75.65;101005.41;5016670;28;102279;-53
2022/10/26 00:16:51;;;;;;;61.65;58.10;;;;;;;16.16;75.15;101003.78;5015136;28;103997;-53
2022/10/26 00:19:18;;;;;;;59.65;56.20;;;;;;;16.18;75.58;101008.94;5018767;28;102453;-54
2022/10/26 00:21:44;;;;;;;60.45;56.75;;;;;;;16.16;75.42;101014.75;5014685;28;102551;-53
2022/10/26 00:24:11;;;;;;;59.80;56.28;;;;;;;16.16;75.29;101017.50;5018234;28;102152;-53
2022/10/26 00:26:39;;;;;;;59.40;56.03;;;;;;;16.17;75.43;101024.63;5015594;28;104129;-53
2022/10/26 00:29:06;;;;;;;59.67;56.17;;;;;;;16.17;75.50;101012.81;5021768;28;102346;-53
2022/10/26 00:31:33;;;;;;;57.17;53.88;;;;;;;16.17;75.06;101019.13;5024961;27;102568;-54
2022/10/26 00:34:00;;;;;;;60.40;56.90;;;;;;;16.17;75.62;101021.06;5034541;27;102234;-53
2022/10/26 00:36:26;;;;;;;62.10;58.60;;;;;;;16.17;75.53;101019.13;5033722;27;104298;-53
2022/10/26 00:38:55;;;;;;;56.05;52.72;;;;;;;16.17;75.63;101021.06;5027544;27;102416;-54
2022/10/26 00:41:23;;;;;;;;;;;;;;;16.17;75.19;101021.06;5029551;28;102217;-53
2022/10/26 00:43:52;;;;;;;54.08;50.83;;;;;;;16.17;75.14;101026.56;5029016;27;102296;-53
2022/10/26 00:46:26;;;;;;;59.70;56.30;;;;;;;16.17;75.29;101021.88;5022957;28;108007;-54
2022/10/26 00:48:57;;;;;;;60.85;57.25;;;;;;;16.16;75.48;101025.75;5025195;27;102092;-54
2022/10/26 00:51:31;;;;;;;59.88;56.42;;;;;;;16.16;75.38;101023.00;5021967;27;102136;-53
2022/10/26 00:54:01;;;;;;;62.40;58.90;;;;;;;16.16;75.61;101016.69;5035529;27;102346;-54
2022/10/26 00:56:29;;;;;;;56.45;53.00;;;;;;;16.15;75.36;101020.53;5033707;27;103891;-53
2022/10/26 00:59:01;;;;;;;62.97;59.45;;;;;;;16.17;75.17;101021.06;5027170;28;102108;-53
2022/10/26 01:01:28;;;;;;;57.53;54.05;;;;;;;16.17;75.51;101018.31;5014643;28;102182;-53
2022/10/26 01:03:55;;;;;;;60.80;57.33;;;;;;;16.16;75.31;101025.75;5018985;28;104617;-53
2022/10/26 01:06:22;;;;;;;60.13;56.70;;;;;;;16.17;75.47;101029.31;5013998;28;103371;-53
2022/10/26 01:08:49;;;;;;;59.47;55.95;;;;;;;16.16;75.27;101022.19;5021176;27;102336;-54
2022/10/26 01:11:15;;;;;;;61.75;57.97;;;;;;;16.16;75.36;101024.94;5034223;27;102102;-53
2022/10/26 01:13:45;;;;;;;58.88;55.40;;;;;;;16.16;75.16;101023.00;5034798;27;102122;-54
2022/10/26 01:16:39;;;;;;;62.05;58.55;;;;;;;16.17;75.32;101015.56;5029245;27;103982;-53
2022/10/26 01:19:41;;;;;;;56.50;53.10;;;;;;;16.17;75.13;101012.81;5032767;27;102602;-53
2022/10/26 01:22:14;;;;;;;59.63;56.20;;;;;;;16.17;75.01;101018.31;5030098;27;102273;-53
2022/10/26 01:24:53;;;;;;;58.67;55.13;;;;;;;16.16;75.56;101022.19;5034538;27;102183;-53
2022/10/26 01:27:25;;;;;;;59.42;55.90;;;;;;;16.16;75.50;101022.19;5030163;27;103802;-53
2022/10/26 01:30:16;;;;;;;60.80;57.25;;;;;;;16.16;75.38;101014.75;5018353;27;102197;-58
2022/10/26 01:32:51;;;;;;;58.25;54.80;;;;;;;16.17;75.30;101012.81;5031840;27;102157;-53
2022/10/26 01:35:25;;;;;;;63.92;60.25;;;;;;;16.17;75.46;101024.63;5026393;27;102400;-53
2022/10/26 01:37:58;;;;;;;61.55;57.95;;;;;;;16.17;75.08;101012.81;5033942;27;104091;-53
2022/10/26 01:40:32;;;;;;;58.60;55.03;;;;;;;16.15;75.05;101018.59;5033196;27;102299;-53
2022/10/26 01:43:04;;;;;;;55.40;52.10;;;;;;;16.17;75.44;101023.81;5034500;27;102071;-54
2022/10/26 01:45:34;;;;;;;58.65;55.17;;;;;;;16.17;75.53;101021.06;5034016;27;102371;-53
2022/10/26 01:48:02;;;;;;;60.20;56.60;;;;;;;16.16;75.02;101016.69;5027777;27;104185;-53
2022/10/26 01:50:31;;;;;;;61.15;57.53;;;;;;;16.17;75.20;101023.81;5024952;27;102428;-53
2022/10/26 01:52:58;;;;;;;62.72;59.05;;;;;;;16.16;74.90;101027.69;5024144;27;102091;-53
2022/10/26 01:55:45;;;;;;;62.70;59.03;;;;;;;16.16;75.29;101022.19;5015275;28;102817;-54
2022/10/26 01:58:42;;;;;;;60.77;57.17;;;;;;;16.15;75.13;101017.78;5014874;28;104181;-53
2022/10/26 02:01:28;;;;;;;57.25;53.88;;;;;;;16.15;75.53;101020.53;4996000;28;102529;-53
2022/10/26 02:04:05;;;;;;;65.00;60.95;;;;;;;16.14;75.32;101019.72;5012974;28;102214;-53
2022/10/26 02:06:45;;;;;;;63.50;59.72;;;;;;;16.15;75.00;101015.03;5014957;28;102362;-53
2022/10/26 02:09:19;;;;;;;58.97;55.47;;;;;;;16.16;74.95;101033.16;5001385;28;103970;-53
2022/10/26 02:11:50;;;;;;;61.42;57.78;;;;;;;16.15;74.99;101029.59;5014641;27;102049;-53
2022/10/26 02:14:23;;;;;;;59.53;55.67;;;;;;;16.16;75.32;101022.19;5012148;28;102643;-53
2022/10/26 02:17:05;;;;;;;58.13;54.53;;;;;;;16.15;75.26;101021.34;5017246;28;102717;-53
2022/10/26 02:19:37;;;;;;;58.80;55.05;;;;;;;16.14;74.99;101018.91;5031824;27;103746;-54
2022/10/26 02:22:11;;;;;;;66.10;62.17;;;;;;;16.14;75.20;101027.16;5034014;27;102337;-53
2022/10/26 02:24:40;;;;;;;59.05;55.53;;;;;;;16.16;75.05;101022.19;5032475;27;102473;-53
2022/10/26 02:27:11;;;;;;;59.03;55.47;;;;;;;16.15;75.15;101021.34;5020201;27;102537;-53
2022/10/26 02:29:40;;;;;;;217.20;139.43;;;;;;;16.15;75.24;101031.50;5016790;28;103946;-54
2022/10/26 02:32:09;;;;;;;326.88;294.67;;;;;;;16.16;75.14;101027.69;5031466;27;102097;-53
2022/10/26 02:34:39;;;;;;;67.57;63.45;;;;;;;16.15;75.35;101031.50;5035723;27;102035;-53
2022/10/26 02:37:07;;;;;;;70.88;66.80;;;;;;;16.15;75.13;101037.00;5037452;27;102311;-53
2022/10/26 02:39:36;;;;;;;65.33;61.67;;;;;;;16.16;75.13;101038.66;5023819;27;104014;-53
2022/10/26 02:42:06;;;;;;;72.25;68.13;;;;;;;16.15;74.97;101040.56;5030465;28;102361;-53
2022/10/26 02:44:40;;;;;;;68.55;64.45;;;;;;;16.15;75.09;101042.50;5036149;27;102031;-53
2022/10/26 02:47:08;;;;;;;70.43;66.40;;;;;;;16.16;74.98;101038.66;5022783;27;102456;-53
2022/10/26 02:49:35;;;;;;;78.73;74.23;;;;;;;16.14;75.21;101047.19;5032457;28;103832;-53
2022/10/26 02:52:09;;;;;;;64.45;60.67;;;;;;;16.14;75.20;101044.44;5014983;28;102084;-56
2022/10/26 02:54:44;;;;;;;68.50;64.70;;;;;;;16.15;74.99;101042.50;5015844;28;102611;-53
2022/10/26 02:57:16;;;;;;;68.45;64.40;;;;;;;16.13;75.21;101044.75;5017008;27;102196;-53
2022/10/26 02:59:46;;;;;;;63.97;60.22;;;;;;;16.14;75.22;101052.66;5016535;28;103701;-53
2022/10/26 03:02:16;;;;;;;72.47;68.22;;;;;;;16.15;75.02;101048.00;5020665;27;103781;-53
2022/10/26 03:04:43;;;;;;;66.22;62.30;;;;;;;16.14;75.35;101044.44;5019865;27;102269;-54
2022/10/26 03:07:10;;;;;;;67.32;63.38;;;;;;;16.14;74.94;101038.13;5012534;27;102427;-53
2022/10/26 03:09:36;;;;;;;71.00;66.97;;;;;;;16.15;75.33;101053.47;5001123;28;103997;-53
2022/10/26 03:12:03;;;;;;;77.55;73.13;;;;;;;16.14;75.45;101060.91;5019052;27;102416;-53
2022/10/26 03:14:30;;;;;;;70.45;66.38;;;;;;;16.15;75.12;101061.72;5035132;27;102508;-53
2022/10/26 03:16:59;;;;;;;77.47;72.97;;;;;;;16.13;74.92;101067.53;5021861;28;102279;-53
2022/10/26 03:19:27;;;;;;;71.10;66.97;;;;;;;16.13;75.34;101073.00;5008529;27;103864;-53
2022/10/26 03:21:53;;;;;;;73.68;69.35;;;;;;;16.15;75.33;101075.44;5015111;28;102200;-53
2022/10/26 03:24:19;;;;;;;67.60;63.70;;;;;;;16.15;75.16;101079.00;5023227;27;102396;-53
2022/10/26 03:26:46;;;;;;;72.90;68.63;;;;;;;16.14;75.31;101069.16;5037021;27;102483;-53
2022/10/26 03:29:12;;;;;;;72.22;68.00;;;;;;;16.15;74.98;101073.50;5030840;27;104067;-53
2022/10/26 03:31:39;;;;;;;72.68;68.57;;;;;;;16.15;75.17;101078.19;5019874;28;102209;-53
2022/10/26 03:34:06;;;;;;;74.05;69.78;;;;;;;16.15;75.34;101075.44;5023674;27;102200;-53
2022/10/26 03:36:34;;;;;;;67.20;63.33;;;;;;;16.14;75.14;101062.84;5031435;27;102399;-54
2022/10/26 03:39:00;;;;;;;69.20;65.25;;;;;;;16.15;74.77;101061.72;5034338;27;103729;-53
2022/10/26 03:41:27;;;;;;;78.38;74.00;;;;;;;16.14;74.90;101062.84;5036300;27;102338;-53
2022/10/26 03:43:53;;;;;;;75.47;71.22;;;;;;;16.15;75.29;101069.97;5036044;27;102007;-53
2022/10/26 03:46:20;;;;;;;76.00;71.63;;;;;;;16.14;75.20;101068.34;5028213;27;102411;-53
2022/10/26 03:48:46;;;;;;;71.55;67.45;;;;;;;16.14;74.92;101069.16;5027983;27;103867;-53
2022/10/26 03:51:16;;;;;;;67.05;62.88;;;;;;;16.15;75.16;101065.28;5031454;27;102629;-53
2022/10/26 03:53:44;;;;;;;74.97;70.80;;;;;;;16.14;74.82;101069.16;5021683;28;102400;-53
2022/10/26 03:56:10;;;;;;;69.30;65.28;;;;;;;16.15;74.86;101073.50;5036719;27;102234;-53
2022/10/26 03:58:39;;;;;;;73.57;69.22;;;;;;;16.15;75.05;101078.19;5034306;27;104177;-53
2022/10/26 04:01:05;;;;;;;74.15;69.88;;;;;;;16.15;74.75;101083.69;5035763;27;101937;-53
2022/10/26 04:03:32;;;;;;;74.00;69.85;;;;;;;16.15;75.16;101087.25;5035120;27;102469;-53
2022/10/26 04:05:59;;;;;;;72.03;67.70;;;;;;;16.15;74.85;101092.72;5025118;27;102450;-53
2022/10/26 04:08:26;;;;;;;71.75;67.65;;;;;;;16.16;75.28;101097.13;5014701;28;103924;-53
2022/10/26 04:10:56;;;;;;;69.50;65.50;;;;;;;16.15;75.13;101100.16;5017930;28;102401;-53
2022/10/26 04:13:22;;;;;;;75.10;70.85;;;;;;;16.15;75.19;101102.91;5035524;27;102315;-53
2022/10/26 04:15:49;;;;;;;77.93;73.55;;;;;;;16.16;74.93;101104.56;5034538;27;102109;-53
2022/10/26 04:18:16;;;;;;;75.03;70.82;;;;;;;16.14;74.79;101101.28;5035095;27;104146;-53
2022/10/26 04:20:43;;;;;;;72.65;68.50;;;;;;;16.15;75.23;101098.22;5033643;27;102563;-54
2022/10/26 04:23:12;;;;;;;77.68;73.32;;;;;;;16.15;75.04;101100.16;5035180;27;102150;-53
2022/10/26 04:25:41;;;;;;;75.32;70.97;;;;;;;16.16;75.02;101107.31;5033811;27;102887;-53
2022/10/26 04:28:11;;;;;;;71.10;67.05;;;;;;;16.15;75.25;101111.94;5035222;27;103917;-53
2022/10/26 04:30:38;;;;;;;73.45;69.30;;;;;;;16.15;74.87;101108.41;5035904;27;102541;-53
2022/10/26 04:33:06;;;;;;;69.88;65.80;;;;;;;16.17;75.14;101108.94;5022994;27;102932;-53
2022/10/26 04:35:33;;;;;;;74.80;70.63;;;;;;;16.16;75.03;101115.53;5016953;28;102643;-53
2022/10/26 04:38:01;;;;;;;66.75;62.92;;;;;;;16.14;75.23;101107.59;5023707;28;103919;-53
2022/10/26 04:40:29;;;;;;;76.72;72.35;;;;;;;16.16;74.80;101118.28;5034074;27;102370;-54
2022/10/26 04:42:56;;;;;;;74.72;70.55;;;;;;;16.15;75.22;101125.69;5035162;27;102279;-53
2022/10/26 04:45:24;;;;;;;73.60;69.40;;;;;;;16.15;75.04;101130.38;5033715;27;102397;-53
2022/10/26 04:47:58;;;;;;;69.18;65.20;;;;;;;16.15;75.28;101127.63;5026714;27;103902;-53
2022/10/26 04:50:26;;;;;;;72.28;68.22;;;;;;;16.15;75.07;101130.38;5021141;28;102419;-53
2022/10/26 04:52:53;;;;;;;69.57;65.65;;;;;;;16.15;74.95;101130.38;5023533;27;102546;-54
2022/10/26 04:55:19;;;;;;;76.93;72.65;;;;;;;16.14;75.02;101139.72;5035240;27;102172;-54
2022/10/26 04:57:46;;;;;;;69.20;65.28;;;;;;;16.14;75.09;101146.03;5034369;27;103859;-53
2022/10/26 05:00:13;;;;;;;70.10;66.25;;;;;;;16.15;74.92;101146.84;5034403;27;102361;-54
2022/10/26 05:02:41;;;;;;;76.60;72.25;;;;;;;16.14;74.80;101145.22;5025329;27;102611;-54
2022/10/26 05:05:08;;;;;;;69.28;65.38;;;;;;;16.14;75.17;101156.19;5028154;27;102539;-54
2022/10/26 05:07:36;;;;;;;69.47;65.63;;;;;;;16.14;75.14;101156.19;5016617;27;103946;-53
2022/10/26 05:10:03;;;;;;;68.15;64.35;;;;;;;16.14;75.06;101156.19;5035199;27;102076;-53
2022/10/26 05:12:29;;;;;;;66.28;62.53;;;;;;;16.14;74.77;101157.00;5031033;27;102221;-54
2022/10/26 05:14:57;;;;;;;71.32;67.32;;;;;;;16.14;74.99;101167.19;5032386;27;102384;-53
2022/10/26 05:17:24;;;;;;;72.90;68.82;;;;;;;16.13;75.02;101173.78;5027307;27;103919;-53
2022/10/26 05:19:54;;;;;;;72.13;68.18;;;;;;;16.13;74.85;101176.53;5014315;28;102362;-54
2022/10/26 05:22:23;;;;;;;71.68;67.53;;;;;;;16.13;74.85;101182.03;5024695;28;102121;-54
2022/10/26 05:24:50;;;;;;;67.47;63.78;;;;;;;16.11;74.72;101179.56;5030138;27;102205;-53
2022/10/26 05:27:17;;;;;;;71.80;67.90;;;;;;;16.12;74.96;101192.19;5020035;27;103950;-53
2022/10/26 05:29:43;;;;;;;66.88;63.17;;;;;;;16.13;74.66;101193.81;5025280;27;102331;-53
2022/10/26 05:32:10;;;;;;;67.15;63.40;;;;;;;16.13;74.50;101193.00;5033229;27;102646;-54
2022/10/26 05:34:36;;;;;;;73.78;69.85;;;;;;;16.13;74.64;101202.06;5027745;27;102472;-53
2022/10/26 05:37:04;;;;;;;66.30;62.70;;;;;;;16.13;74.61;101199.31;5022239;27;104115;-53
2022/10/26 05:39:30;;;;;;;67.80;64.13;;;;;;;16.14;74.38;101202.88;5027950;27;102104;-53
2022/10/26 05:41:57;;;;;;;67.82;64.18;;;;;;;16.14;74.77;101211.13;5017385;27;102077;-53
2022/10/26 05:44:26;;;;;;;72.07;68.17;;;;;;;16.13;74.58;101210.31;5015721;28;102614;-53
2022/10/26 05:46:52;;;;;;;66.80;63.05;;;;;;;16.13;74.50;101215.78;5014116;28;103733;-53
2022/10/26 05:49:19;;;;;;;69.78;66.05;;;;;;;16.13;74.96;101214.97;5016009;28;102456;-53
2022/10/26 05:51:45;;;;;;;69.85;66.07;;;;;;;16.14;74.84;101216.59;5012400;28;102324;-53
2022/10/26 05:54:13;;;;;;;73.35;69.35;;;;;;;16.13;74.43;101218.53;5008603;28;102219;-53
2022/10/26 05:56:41;;;;;;;68.15;64.43;;;;;;;16.14;74.60;101222.09;5004588;28;105051;-53
2022/10/26 05:59:10;;;;;;;;;;;;;;;16.14;74.82;101216.59;5010696;28;102133;-53
2022/10/26 06:01:50;;;;;;;62.35;58.95;;;;;;;16.14;74.55;101225.66;5008351;28;102398;-56
2022/10/26 06:04:29;;;;;;;66.22;62.67;;;;;;;16.13;74.47;101240.50;5013678;28;102392;-55
2022/10/26 06:06:58;;;;;;;65.03;61.40;;;;;;;16.14;74.56;101235.81;5010797;27;103929;-55
2022/10/26 06:09:27;;;;;;;66.53;62.90;;;;;;;16.14;74.68;101241.31;5017157;28;103431;-55
2022/10/26 06:11:54;;;;;;;64.53;60.95;;;;;;;16.15;74.50;101235.53;5016080;28;102307;-55
2022/10/26 06:14:21;;;;;;;69.72;65.93;;;;;;;16.15;75.11;101237.44;4997971;28;102221;-55
2022/10/26 06:17:02;;;;;;;68.63;64.97;;;;;;;16.13;74.43;101231.47;5004012;28;103890;-55
2022/10/26 06:19:45;;;;;;;67.82;64.28;;;;;;;16.14;74.44;101244.88;5014869;27;102389;-55
2022/10/26 06:22:26;;;;;;;64.45;60.95;;;;;;;16.14;74.64;101239.38;5016701;28;102288;-55
2022/10/26 06:25:04;;;;;;;66.30;62.75;;;;;;;16.14;74.50;101239.38;5015052;28;102452;-55
2022/10/26 06:27:38;;;;;;;64.78;61.35;;;;;;;16.15;74.62;101242.94;5006713;28;103987;-55
2022/10/26 06:30:08;;;;;;;68.03;64.30;;;;;;;16.15;74.48;101240.19;4999552;28;102264;-55
2022/10/26 06:32:35;;;;;;;66.25;62.58;;;;;;;16.15;74.48;101241.00;5008304;28;102695;-55
2022/10/26 06:35:13;;;;;;;67.00;63.40;;;;;;;16.15;74.85;101249.25;5022097;27;103624;-55
2022/10/26 06:37:43;;;;;;;65.53;62.07;;;;;;;16.16;74.81;101258.31;5022776;27;104515;-55
2022/10/26 06:40:15;;;;;;;63.60;60.15;;;;;;;16.16;74.88;101258.31;5022293;28;102166;-55
2022/10/26 06:42:43;;;;;;;66.22;62.72;;;;;;;16.15;74.84;101262.97;4999816;27;103105;-55
2022/10/26 06:45:12;;;;;;;65.53;61.90;;;;;;;16.15;74.87;101257.50;5009836;28;102346;-55
2022/10/26 06:47:44;;;;;;;61.35;58.08;;;;;;;16.15;74.77;101265.72;5003966;28;103868;-55
2022/10/26 06:50:29;;;;;;;64.70;61.28;;;;;;;16.15;74.59;101276.72;4998451;28;102188;-55
2022/10/26 06:53:19;;;;;;;59.42;56.25;;;;;;;16.18;74.35;101272.56;5001518;28;102172;-55
2022/10/26 06:55:49;;;;;;;62.28;58.95;;;;;;;16.19;74.64;101285.16;5019600;28;102412;-52
2022/10/26 06:58:18;;;;;;;66.13;62.60;;;;;;;16.21;74.44;101277.47;5025171;27;104532;-52
2022/10/26 07:00:46;;;;;;;;;;;;;;;16.21;74.67;101282.97;5025696;27;102236;-52
2022/10/26 07:03:13;;;;;;;59.65;56.38;;;;;;;16.23;74.59;101289.00;5026384;27;102410;-52
2022/10/26 07:05:40;;;;;;;62.88;59.55;;;;;;;16.23;74.55;101286.25;5027692;27;102999;-52
2022/10/26 07:08:06;;;;;;;61.70;58.40;;;;;;;16.22;74.52;101290.06;5001023;27;103911;-52
2022/10/26 07:10:37;;;;;;;67.65;64.05;;;;;;;16.24;74.65;101279.63;5016630;28;102310;-52
2022/10/26 07:13:08;;;;;;;68.18;64.45;;;;;;;16.24;74.54;101285.94;5004042;28;102606;-53
2022/10/26 07:15:37;;;;;;;72.00;68.20;;;;;;;16.26;74.52;101299.34;5006967;28;102399;-53
2022/10/26 07:18:05;;;;;;;69.82;66.07;;;;;;;16.24;74.61;101288.69;5014281;27;103978;-53
2022/10/26 07:20:35;;;;;;;69.07;65.35;;;;;;;16.25;74.52;101300.47;5015593;28;102376;-52
2022/10/26 07:23:02;;;;;;;69.18;65.50;;;;;;;16.26;74.82;101296.59;5015330;27;102205;-52
2022/10/26 07:25:29;;;;;;;70.72;67.00;;;;;;;16.25;74.57;101294.97;5011463;28;102206;-53
2022/10/26 07:27:56;;;;;;;67.10;63.60;;;;;;;16.27;74.91;101299.09;5012689;28;103895;-53
2022/10/26 07:30:25;;;;;;;69.65;65.95;;;;;;;16.27;74.85;101303.75;5010432;28;102239;-53
2022/10/26 07:32:58;;;;;;;73.90;70.03;;;;;;;16.27;74.41;101301.81;5011778;28;102310;-52
2022/10/26 07:35:24;;;;;;;70.05;66.20;;;;;;;16.27;74.48;101310.06;5019240;27;102389;-53
2022/10/26 07:37:54;;;;;;;63.17;59.75;;;;;;;16.29;74.40;101307.00;5026583;27;104079;-53
2022/10/26 07:40:22;;;;;;;64.57;61.08;;;;;;;16.29;74.48;101301.53;5013777;28;102938;-53
2022/10/26 07:42:49;;;;;;;69.43;65.70;;;;;;;16.28;74.70;101306.19;5013565;27;102304;-53
2022/10/26 07:45:16;;;;;;;73.35;69.50;;;;;;;16.30;74.77;101298.50;5014452;27;102353;-52
2022/10/26 07:47:45;;;;;;;68.65;65.03;;;;;;;16.32;74.97;101301.75;5009246;28;104442;-53
2022/10/26 07:50:11;;;;;;;;;;;;;;;16.32;74.84;101307.22;5009929;28;102607;-53
2022/10/26 07:52:40;;;;;;;58.40;55.30;;;;;;;16.34;74.89;101309.72;4994065;28;102770;-52
2022/10/26 07:55:08;;;;;;;58.83;55.65;;;;;;;16.33;74.81;101308.88;5002535;28;102488;-52
2022/10/26 07:57:35;;;;;;;66.83;63.33;;;;;;;16.34;74.56;101304.22;5012101;28;103993;-53
2022/10/26 08:00:03;;;;;;;67.88;64.30;;;;;;;16.35;74.76;101311.34;5013213;28;101985;-53
2022/10/26 08:02:30;;;;;;;68.35;64.70;;;;;;;16.34;74.63;101316.00;5012412;28;102422;-53
2022/10/26 08:04:57;;;;;;;66.03;62.53;;;;;;;16.35;74.46;101305.84;5013881;28;102516;-53
2022/10/26 08:07:27;;;;;;;65.82;62.30;;;;;;;16.37;74.71;101306.34;5012181;28;103884;-52
2022/10/26 08:09:54;;;;;;;68.78;65.15;;;;;;;16.35;74.24;101305.84;5004017;28;102502;-52
2022/10/26 08:12:21;;;;;;;58.55;55.45;;;;;;;16.35;74.84;101316.81;5015404;28;102485;-53
2022/10/26 08:14:47;;;;;;;68.72;65.07;;;;;;;16.37;74.60;101313.78;5024983;27;102703;-53
2022/10/26 08:17:14;;;;;;;69.50;65.85;;;;;;;16.36;74.36;101312.97;5031986;27;103933;-52
2022/10/26 08:19:40;;;;;;;68.45;64.88;;;;;;;16.36;74.86;101328.63;5033276;27;102378;-52
2022/10/26 08:22:09;;;;;;;71.40;67.57;;;;;;;16.35;74.77;101316.81;5032793;27;102178;-53
2022/10/26 08:24:36;;;;;;;73.72;69.80;;;;;;;16.33;74.65;101330.03;5034055;27;102332;-53
2022/10/26 08:27:02;;;;;;;67.35;63.72;;;;;;;16.33;74.66;101330.03;5022228;27;103901;-52
2022/10/26 08:29:29;;;;;;;68.05;64.50;;;;;;;16.33;74.83;101328.09;5027446;28;102369;-52
2022/10/26 08:31:56;;;;;;;69.25;65.50;;;;;;;16.31;74.19;101335.81;5001668;27;102670;-53
2022/10/26 08:34:22;;;;;;;66.57;63.05;;;;;;;16.31;74.58;101333.06;5014269;28;102278;-53
2022/10/26 08:36:49;;;;;;;67.18;63.47;;;;;;;16.31;74.44;101333.06;5012359;28;103931;-53
2022/10/26 08:39:18;;;;;;;70.75;66.93;;;;;;;16.31;74.56;101343.25;5013522;28;101980;-52
2022/10/26 08:41:51;;;;;;;64.25;60.85;;;;;;;16.30;74.27;101344.34;5011116;28;102545;-52
2022/10/26 08:44:25;;;;;;;68.43;64.85;;;;;;;16.30;74.47;101353.44;5008113;28;102613;-53
2022/10/26 08:46:57;;;;;;;64.63;61.20;;;;;;;16.28;74.27;101352.06;5014971;28;104193;-52
2022/10/26 08:49:28;;;;;;;67.32;63.80;;;;;;;16.29;74.49;101346.28;5022537;27;102170;-52
2022/10/26 08:51:58;;;;;;;68.00;64.40;;;;;;;16.28;74.41;101347.41;5019220;27;102034;-54
2022/10/26 08:54:36;;;;;;;61.47;58.22;;;;;;;16.27;74.41;101351.25;5023705;28;102516;-52
2022/10/26 08:57:13;;;;;;;65.22;61.75;;;;;;;16.27;74.50;101362.25;5031608;27;107770;-53
2022/10/26 08:59:46;;;;;;;63.67;60.30;;;;;;;16.27;73.94;101359.50;5032492;27;102215;-52
2022/10/26 09:02:15;;;;;;;65.63;62.17;;;;;;;16.28;74.38;101365.81;5028969;27;101935;-53
2022/10/26 09:04:43;;;;;;;64.72;61.28;;;;;;;16.28;73.94;101374.06;5034037;27;102187;-53
2022/10/26 09:07:27;;;;;;;62.03;58.60;;;;;;;16.27;73.83;101370.50;5031669;27;103959;-53
2022/10/26 09:10:03;;;;;;;66.18;62.70;;;;;;;16.28;74.43;101376.78;5032375;27;102734;-52
2022/10/26 09:12:42;;;;;;;63.83;60.42;;;;;;;16.27;74.22;101386.16;5031846;27;102507;-52
2022/10/26 09:15:18;;;;;;;70.82;67.13;;;;;;;16.25;74.40;101382.88;5028426;27;102670;-52
2022/10/26 09:17:54;;;;;;;72.57;68.82;;;;;;;16.27;74.41;101391.66;5018279;27;104072;-52
2022/10/26 09:20:53;;;;;;;65.47;62.00;;;;;;;16.26;74.10;101399.06;5028081;27;102180;-52
2022/10/26 09:23:36;;;;;;;63.63;60.20;;;;;;;16.26;74.51;101390.84;5017018;27;102276;-52
2022/10/26 09:26:13;;;;;;;58.47;55.30;;;;;;;16.26;73.92;101400.97;5013204;28;102620;-52
2022/10/26 09:28:43;;;;;;;64.28;60.88;;;;;;;16.25;73.96;101391.09;5028794;27;104269;-52
2022/10/26 09:31:14;;;;;;;63.17;59.85;;;;;;;16.26;74.27;101396.31;5026700;27;102678;-53
2022/10/26 09:33:41;;;;;;;64.60;61.10;;;;;;;16.25;74.02;101391.09;5029379;27;102345;-52
2022/10/26 09:36:12;;;;;;;76.85;72.75;;;;;;;16.25;74.04;101393.84;5027963;27;102542;-53
2022/10/26 09:38:43;;;;;;;73.28;69.45;;;;;;;16.25;74.06;101397.41;5002409;28;103601;-52
2022/10/26 09:41:20;;;;;;;71.90;68.05;;;;;;;16.25;73.96;101393.84;5007789;28;102423;-52
2022/10/26 09:43:53;;;;;;;64.80;61.35;;;;;;;16.25;74.40;101391.09;5004664;28;102514;-53
2022/10/26 09:46:25;;;;;;;69.97;66.30;;;;;;;16.24;74.06;101386.75;5001161;28;102287;-52
2022/10/26 09:48:55;;;;;;;76.10;72.07;;;;;;;16.24;74.05;101389.47;5012757;28;103780;-52
2022/10/26 09:51:26;;;;;;;68.50;64.68;;;;;;;16.23;74.12;101396.91;5025298;27;103794;-52
2022/10/26 09:53:55;;;;;;;64.30;60.88;;;;;;;16.25;74.34;101394.66;5024809;28;102453;-52
2022/10/26 09:56:26;;;;;;;67.57;64.03;;;;;;;16.24;74.16;101397.72;5024386;27;102319;-52
2022/10/26 09:59:00;;;;;;;71.60;67.88;;;;;;;16.25;73.91;101385.63;5030527;27;104127;-52
2022/10/26 10:01:28;;;;;;;64.15;60.72;;;;;;;16.24;74.19;101384.81;5026155;27;102530;-52
2022/10/26 10:04:10;;;;;;;65.90;62.30;;;;;;;16.24;74.39;101392.22;5017606;27;102427;-52
2022/10/26 10:06:38;;;;;;;66.95;63.28;;;;;;;16.26;74.41;101392.72;5024779;27;102452;-53
2022/10/26 10:09:09;;;;;;;69.50;65.78;;;;;;;16.25;74.22;101393.84;5024331;27;103954;-53
2022/10/26 10:11:39;;;;;;;61.83;58.40;;;;;;;16.24;73.84;101393.03;5024544;27;102650;-52
2022/10/26 10:14:07;;;;;;;;;;;;;;;16.24;73.95;101387.56;5022608;27;102682;-53
2022/10/26 10:16:35;;;;;;;59.30;56.05;;;;;;;16.23;74.49;101390.59;5017615;28;102288;-52
2022/10/26 10:19:01;;;;;;;63.70;60.35;;;;;;;16.24;74.43;101397.72;5028182;27;103910;-53
2022/10/26 10:21:34;;;;;;;64.63;61.17;;;;;;;16.24;74.07;101390.28;5023001;27;101974;-52
2022/10/26 10:24:01;;;;;;;62.60;59.13;;;;;;;16.25;74.20;101393.84;4999729;28;102510;-52
2022/10/26 10:26:27;;;;;;;63.05;59.60;;;;;;;16.25;73.92;101404.84;5025999;28;102384;-53
2022/10/26 10:29:00;;;;;;;69.82;65.95;;;;;;;16.24;74.05;101403.22;5023227;27;104319;-53
2022/10/26 10:31:28;;;;;;;72.53;68.78;;;;;;;16.24;74.22;101409.53;5031271;27;102644;-53
2022/10/26 10:33:54;;;;;;;63.43;60.00;;;;;;;16.23;74.13;101405.16;5028498;27;102507;-52
2022/10/26 10:36:24;;;;;;;62.63;59.10;;;;;;;16.24;74.29;101408.72;5028126;27;102484;-52
2022/10/26 10:38:52;;;;;;;74.75;70.72;;;;;;;16.23;74.29;101401.59;5023039;27;104010;-53
2022/10/26 10:41:24;;;;;;;61.95;58.65;;;;;;;16.22;74.32;101394.44;5010646;28;102370;-52
2022/10/26 10:43:54;;;;;;;65.43;61.92;;;;;;;16.23;74.11;101401.59;5005928;28;102235;-52
2022/10/26 10:46:25;;;;;;;64.28;60.80;;;;;;;16.23;74.10;101407.09;5007978;28;102418;-52
2022/10/26 10:48:59;;;;;;;69.38;65.65;;;;;;;16.22;74.26;101394.44;5005224;28;104044;-52
2022/10/26 10:51:26;;;;;;;70.68;66.75;;;;;;;16.24;74.21;101408.72;5011477;28;102490;-52
2022/10/26 10:53:55;;;;;;;66.50;62.92;;;;;;;16.25;73.91;101402.09;5006702;28;102551;-52
2022/10/26 10:56:34;;;;;;;63.63;60.10;;;;;;;16.24;73.96;101405.97;5010674;28;102265;-53
2022/10/26 10:59:25;;;;;;;63.35;59.95;;;;;;;16.24;74.01;101405.97;5005359;28;103883;-53
2022/10/26 11:02:09;;;;;;;65.55;61.80;;;;;;;16.24;73.95;101409.53;5007740;28;102718;-53
2022/10/26 11:04:56;;;;;;;65.63;62.13;;;;;;;16.24;74.19;101403.22;5006621;28;102264;-52
2022/10/26 11:07:25;;;;;;;63.63;60.20;;;;;;;16.24;74.25;101409.53;5000349;28;103826;-52
2022/10/26 11:09:53;;;;;;;63.72;60.20;;;;;;;16.24;74.40;101408.72;5009795;28;103946;-53
2022/10/26 11:12:25;;;;;;;69.97;66.13;;;;;;;16.24;74.16;101408.72;5008007;28;102418;-53
2022/10/26 11:14:58;;;;;;;69.78;66.05;;;;;;;16.24;74.00;101412.28;5008299;28;102412;-53
2022/10/26 11:17:30;;;;;;;61.95;58.47;;;;;;;16.23;73.93;101407.91;5013844;28;102374;-53